Time;durP1;ratioP1;P1;durP2;ratioP2;P2;SDS_P1;SDS_P2;PMS_P1;PMS_P2;Temp;Humidity;BMP_temperature;BMP_pressure;BME280_temperature;BME280_humidity;BME280_pressure;Samples;Min_cycle;Max_cycle;Signal;HPM_P1;HPM_P2
2021/12/23 00:00:56;;;;;;;23.43;15.27;;;3.40;69.40;;;;;;5077585;28;20040;-62
2021/12/23 00:03:22;;;;;;;22.80;14.23;;;3.40;69.40;;;;;;5075779;28;20024;-62
2021/12/23 00:05:48;;;;;;;24.83;14.70;;;3.40;69.40;;;;;;5059608;28;20373;-62
2021/12/23 00:08:13;;;;;;;22.40;14.67;;;3.40;69.40;;;;;;5076989;28;20090;-62
2021/12/23 00:10:40;;;;;;;22.77;13.90;;;3.40;69.40;;;;;;5076179;28;20032;-63
2021/12/23 00:13:06;;;;;;;25.43;14.70;;;3.40;69.40;;;;;;5076417;28;20028;-62
2021/12/23 00:16:02;;;;;;;22.03;13.50;;;3.40;69.40;;;;;;5074636;28;20467;-63
2021/12/23 00:23:47;;;;;;;22.60;13.10;;;3.40;69.40;;;;;;5073737;28;20040;-63
2021/12/23 00:26:13;;;;;;;25.37;14.87;;;3.40;69.40;;;;;;5076640;28;20028;-62
2021/12/23 00:28:38;;;;;;;24.87;14.07;;;3.40;69.50;;;;;;5075772;28;20029;-62
2021/12/23 00:31:06;;;;;;;24.57;15.37;;;3.40;69.40;;;;;;5075534;28;20076;-63
2021/12/23 00:33:34;;;;;;;21.73;13.47;;;3.40;69.40;;;;;;5055058;28;20025;-63
2021/12/23 00:35:59;;;;;;;25.10;14.77;;;3.40;69.40;;;;;;5076049;28;20028;-63
2021/12/23 00:38:32;;;;;;;26.30;16.00;;;3.40;69.40;;;;;;5074610;28;20032;-62
2021/12/23 00:41:01;;;;;;;22.20;14.70;;;3.40;69.50;;;;;;5058119;28;20032;-63
2021/12/23 00:43:26;;;;;;;22.37;13.93;;;3.40;69.50;;;;;;5074915;28;20037;-63
2021/12/23 00:45:52;;;;;;;27.40;14.80;;;3.40;69.50;;;;;;5075757;28;20027;-62
2021/12/23 00:48:19;;;;;;;25.63;15.93;;;3.40;69.40;;;;;;5074891;28;20031;-63
2021/12/23 00:50:46;;;;;;;24.73;14.70;;;3.40;69.40;;;;;;5075940;28;20066;-62
2021/12/23 00:53:17;;;;;;;22.07;14.47;;;3.40;69.40;;;;;;5074787;28;20380;-63
2021/12/23 00:55:44;;;;;;;24.60;15.40;;;3.40;69.30;;;;;;5058257;28;20024;-63
2021/12/23 00:58:10;;;;;;;23.67;14.17;;;3.40;69.20;;;;;;5057368;28;20412;-62
2021/12/23 01:00:36;;;;;;;25.03;15.90;;;3.40;69.90;;;;;;5075532;28;20032;-62
2021/12/23 01:03:03;;;;;;;22.87;14.37;;;3.40;69.20;;;;;;5074658;28;20028;-62
2021/12/23 01:05:29;;;;;;;24.87;14.73;;;3.40;69.30;;;;;;5058038;28;20032;-62
2021/12/23 01:07:55;;;;;;;21.20;13.33;;;3.40;69.30;;;;;;5074509;28;20021;-62
2021/12/23 01:10:24;;;;;;;24.73;14.97;;;3.40;69.20;;;;;;5075156;28;20020;-63
2021/12/23 01:12:55;;;;;;;24.40;15.23;;;3.40;69.20;;;;;;5075482;28;20025;-63
2021/12/23 01:18:06;;;;;;;26.67;16.57;;;3.40;69.20;;;;;;5074116;28;20035;-62
2021/12/23 01:20:35;;;;;;;26.13;15.53;;;3.40;69.10;;;;;;5057438;28;20028;-62
2021/12/23 01:23:05;;;;;;;22.60;13.63;;;3.40;69.10;;;;;;5073505;28;20036;-62
2021/12/23 01:25:32;;;;;;;21.53;14.10;;;3.40;69.10;;;;;;5074726;28;20028;-63
2021/12/23 01:27:58;;;;;;;20.07;12.30;;;3.40;69.10;;;;;;5073869;28;20033;-63
2021/12/23 01:30:24;;;;;;;27.43;15.17;;;3.40;69.10;;;;;;5075007;28;20052;-62
2021/12/23 01:32:51;;;;;;;23.70;14.70;;;3.40;69.10;;;;;;5074483;28;20391;-63
2021/12/23 01:35:18;;;;;;;23.33;14.57;;;3.40;69.00;;;;;;5057380;28;20032;-62
2021/12/23 01:37:44;;;;;;;22.97;14.63;;;3.50;69.20;;;;;;5056463;28;20033;-62
2021/12/23 01:40:13;;;;;;;25.40;15.07;;;3.40;69.10;;;;;;5072766;28;20369;-63
2021/12/23 01:42:40;;;;;;;22.30;13.97;;;3.40;69.10;;;;;;5058341;28;20024;-62
2021/12/23 01:45:18;;;;;;;22.60;14.73;;;3.40;69.10;;;;;;5074864;28;20353;-64
2021/12/23 01:47:44;;;;;;;25.90;15.10;;;3.40;69.10;;;;;;5073643;28;20024;-62
2021/12/23 01:50:11;;;;;;;24.13;15.73;;;3.40;69.10;;;;;;5073861;28;20032;-64
2021/12/23 01:52:38;;;;;;;25.23;15.50;;;3.40;69.20;;;;;;5074341;28;20037;-63
2021/12/23 01:55:06;;;;;;;20.63;14.53;;;3.40;69.20;;;;;;5074963;28;20036;-63
2021/12/23 01:57:32;;;;;;;24.20;14.73;;;3.40;69.20;;;;;;5072712;28;20314;-62
2021/12/23 02:00:00;;;;;;;21.40;13.47;;;3.40;69.20;;;;;;5073531;28;20382;-62
2021/12/23 02:02:26;;;;;;;26.73;15.37;;;3.40;69.20;;;;;;5053784;28;20096;-63
2021/12/23 02:04:52;;;;;;;25.90;14.60;;;3.40;69.20;;;;;;5073689;28;20025;-65
2021/12/23 02:07:18;;;;;;;25.37;16.40;;;3.40;69.20;;;;;;5072972;28;20032;-63
2021/12/23 02:09:44;;;;;;;25.03;14.40;;;3.40;69.10;;;;;;5072397;28;20377;-63
2021/12/23 02:12:09;;;;;;;26.67;15.60;;;3.30;69.00;;;;;;5074134;28;20033;-62
2021/12/23 02:14:35;;;;;;;24.93;15.97;;;3.30;69.10;;;;;;5074373;28;20413;-63
2021/12/23 02:17:01;;;;;;;24.20;15.17;;;3.30;69.10;;;;;;5072883;28;20370;-62
2021/12/23 02:19:27;;;;;;;27.03;16.60;;;3.30;69.10;;;;;;5074420;28;20033;-63
2021/12/23 02:21:53;;;;;;;21.87;12.57;;;3.30;69.10;;;;;;5073333;28;20391;-62
2021/12/23 02:24:18;;;;;;;22.53;14.67;;;3.30;69.10;;;;;;5052913;28;20032;-62
2021/12/23 02:26:44;;;;;;;26.10;15.47;;;3.30;69.10;;;;;;5052931;28;20025;-63
2021/12/23 02:29:10;;;;;;;25.50;15.87;;;3.30;69.10;;;;;;5072798;28;20048;-63
2021/12/23 02:31:37;;;;;;;23.77;15.00;;;3.30;69.10;;;;;;5073313;28;20036;-63
2021/12/23 02:34:03;;;;;;;23.43;14.10;;;3.30;69.10;;;;;;5073836;28;20055;-63
2021/12/23 02:36:30;;;;;;;24.53;15.67;;;3.30;69.10;;;;;;5073847;28;20059;-62
2021/12/23 02:38:57;;;;;;;24.43;14.37;;;3.30;69.10;;;;;;5072934;28;20492;-63
2021/12/23 02:41:23;;;;;;;27.50;15.87;;;3.30;69.20;;;;;;5056423;28;20021;-62
2021/12/23 02:43:49;;;;;;;26.37;15.27;;;3.30;69.10;;;;;;5072775;28;20040;-62
2021/12/23 02:46:18;;;;;;;25.10;15.23;;;3.30;69.10;;;;;;5056100;28;20028;-62
2021/12/23 02:48:43;;;;;;;25.63;16.07;;;3.30;69.10;;;;;;5074002;28;20039;-62
2021/12/23 02:51:11;;;;;;;25.23;15.50;;;3.30;69.10;;;;;;5073618;28;20021;-63
2021/12/23 02:53:37;;;;;;;23.77;15.93;;;3.30;69.10;;;;;;5073567;28;20457;-62
2021/12/23 02:56:05;;;;;;;24.37;15.90;;;3.30;69.10;;;;;;5072819;28;20049;-63
2021/12/23 02:58:32;;;;;;;24.30;15.87;;;3.20;69.00;;;;;;5072187;28;20449;-63
2021/12/23 03:01:00;;;;;;;26.63;16.67;;;3.30;69.10;;;;;;5073859;28;20021;-63
2021/12/23 03:03:25;;;;;;;24.40;15.73;;;3.20;69.10;;;;;;5073083;28;20016;-63
2021/12/23 03:05:54;;;;;;;26.93;16.80;;;3.20;69.20;;;;;;5073830;28;20360;-62
2021/12/23 03:08:33;;;;;;;26.33;16.20;;;3.20;69.20;;;;;;5069156;28;20032;-63
2021/12/23 03:10:59;;;;;;;23.17;15.13;;;3.20;69.20;;;;;;5059003;28;20033;-63
2021/12/23 03:13:25;;;;;;;24.80;15.33;;;3.20;69.20;;;;;;5073703;28;20109;-63
2021/12/23 03:15:51;;;;;;;25.57;15.83;;;3.20;69.20;;;;;;5073506;28;20056;-63
2021/12/23 03:18:17;;;;;;;24.77;16.67;;;3.20;69.20;;;;;;5072274;28;20064;-62
2021/12/23 03:20:43;;;;;;;26.33;16.03;;;3.20;69.20;;;;;;5074448;28;20031;-63
2021/12/23 03:23:09;;;;;;;26.93;16.07;;;3.20;69.20;;;;;;5076322;28;20035;-63
2021/12/23 03:25:34;;;;;;;23.37;14.87;;;3.20;69.20;;;;;;5059355;28;20107;-62
2021/12/23 03:28:00;;;;;;;27.50;15.73;;;3.20;69.20;;;;;;5059660;28;20024;-63
2021/12/23 03:30:26;;;;;;;25.87;15.93;;;3.20;69.20;;;;;;5056553;28;20136;-63
2021/12/23 03:32:52;;;;;;;26.37;15.93;;;3.20;69.90;;;;;;5068086;28;20032;-63
2021/12/23 03:35:17;;;;;;;25.17;15.90;;;3.20;69.20;;;;;;5077144;28;20062;-63
2021/12/23 03:37:44;;;;;;;24.67;14.67;;;3.20;69.20;;;;;;5077561;28;20024;-63
2021/12/23 03:40:10;;;;;;;27.90;16.00;;;3.20;69.20;;;;;;5076089;28;20368;-62
2021/12/23 03:42:36;;;;;;;24.23;14.87;;;3.10;69.20;;;;;;5077018;28;20059;-63
2021/12/23 03:45:05;;;;;;;25.20;15.13;;;3.10;69.30;;;;;;5075988;28;20441;-62
2021/12/23 03:47:30;;;;;;;24.17;15.73;;;3.10;69.40;;;;;;5075819;28;20457;-62
2021/12/23 03:49:56;;;;;;;22.43;13.77;;;3.10;69.40;;;;;;5057645;28;20114;-62
2021/12/23 03:52:22;;;;;;;30.33;16.60;;;3.10;70.10;;;;;;5075784;28;20028;-62
2021/12/23 03:54:47;;;;;;;21.43;13.73;;;3.00;69.40;;;;;;5076123;28;20036;-63
2021/12/23 03:57:13;;;;;;;26.47;16.10;;;3.00;69.50;;;;;;5075754;28;20032;-62
2021/12/23 03:59:38;;;;;;;27.30;15.67;;;3.00;69.60;;;;;;5076033;28;20043;-63
2021/12/23 04:02:04;;;;;;;26.87;16.33;;;3.00;69.60;;;;;;5076451;28;20016;-62
2021/12/23 04:04:30;;;;;;;29.23;17.63;;;3.00;69.70;;;;;;5075850;28;20033;-62
2021/12/23 04:06:56;;;;;;;27.90;17.37;;;2.90;69.60;;;;;;5076544;28;20372;-62
2021/12/23 04:09:22;;;;;;;30.10;16.97;;;2.90;69.70;;;;;;5075812;28;20033;-63
2021/12/23 04:11:47;;;;;;;26.07;16.83;;;2.90;69.70;;;;;;5075413;28;20036;-63
2021/12/23 04:14:13;;;;;;;25.67;15.90;;;2.90;69.80;;;;;;5076585;28;20043;-62
2021/12/23 04:16:38;;;;;;;24.70;15.43;;;2.90;69.80;;;;;;5058018;28;20368;-62
2021/12/23 04:19:09;;;;;;;28.53;16.30;;;2.90;69.70;;;;;;5076067;28;20032;-62
2021/12/23 04:21:36;;;;;;;23.90;15.53;;;2.90;69.80;;;;;;5075502;28;20029;-63
2021/12/23 04:24:02;;;;;;;27.70;16.47;;;2.90;70.50;;;;;;5076301;28;20058;-63
2021/12/23 04:26:28;;;;;;;25.00;14.70;;;2.90;69.80;;;;;;5076126;28;20063;-62
2021/12/23 04:28:54;;;;;;;26.93;15.53;;;2.90;69.80;;;;;;5075617;28;20508;-63
2021/12/23 04:31:22;;;;;;;22.47;14.60;;;2.90;69.90;;;;;;5074720;28;20040;-62
2021/12/23 04:33:50;;;;;;;27.20;15.07;;;2.90;70.00;;;;;;5076264;28;20067;-62
2021/12/23 04:36:17;;;;;;;27.13;16.17;;;2.90;70.00;;;;;;5075961;28;20107;-63
2021/12/23 04:38:44;;;;;;;24.10;14.97;;;2.90;69.80;;;;;;5076289;28;20350;-63
2021/12/23 04:41:10;;;;;;;26.13;15.50;;;2.90;69.80;;;;;;5076066;28;20048;-63
2021/12/23 04:43:36;;;;;;;25.90;15.60;;;2.90;69.80;;;;;;5055135;28;20023;-63
2021/12/23 04:46:03;;;;;;;27.90;16.47;;;2.90;69.80;;;;;;5069559;28;20028;-63
2021/12/23 04:48:29;;;;;;;25.10;15.97;;;2.90;69.80;;;;;;5074827;28;20077;-63
2021/12/23 04:50:55;;;;;;;23.27;14.50;;;2.90;69.80;;;;;;5074709;28;20060;-63
2021/12/23 04:53:21;;;;;;;26.90;16.23;;;3.00;69.80;;;;;;5074744;28;20382;-62
2021/12/23 04:55:46;;;;;;;24.93;16.07;;;3.00;70.30;;;;;;5075628;28;20075;-62
2021/12/23 04:58:12;;;;;;;27.10;16.70;;;3.00;69.70;;;;;;5075455;28;20073;-62
2021/12/23 05:00:38;;;;;;;28.60;17.33;;;3.00;69.80;;;;;;5074991;28;20027;-62
2021/12/23 05:03:03;;;;;;;27.50;16.20;;;3.00;69.70;;;;;;5074780;28;20078;-63
2021/12/23 05:05:29;;;;;;;29.10;17.67;;;3.00;69.70;;;;;;5074387;28;20024;-62
2021/12/23 05:07:56;;;;;;;26.93;16.70;;;3.00;69.60;;;;;;5075502;28;20082;-63
2021/12/23 05:10:22;;;;;;;27.43;16.73;;;3.00;69.60;;;;;;5074461;28;20028;-62
2021/12/23 05:12:48;;;;;;;27.50;15.80;;;3.10;69.60;;;;;;5074675;28;20484;-63
2021/12/23 05:15:17;;;;;;;27.30;17.07;;;3.10;69.70;;;;;;5074441;28;20032;-62
2021/12/23 05:17:44;;;;;;;25.97;16.53;;;3.10;69.70;;;;;;5075245;28;20476;-62
2021/12/23 05:20:12;;;;;;;25.17;16.27;;;3.10;69.80;;;;;;5074709;28;20024;-63
2021/12/23 05:22:38;;;;;;;27.43;17.47;;;3.10;69.80;;;;;;5073954;28;20039;-63
2021/12/23 05:25:06;;;;;;;29.40;18.47;;;3.10;69.70;;;;;;5074273;28;20064;-62
2021/12/23 05:27:31;;;;;;;32.97;17.50;;;3.10;69.80;;;;;;5073885;28;20027;-62
2021/12/23 05:29:57;;;;;;;26.63;17.53;;;3.20;69.70;;;;;;5074502;28;20044;-63
2021/12/23 05:32:23;;;;;;;33.93;18.57;;;3.20;69.60;;;;;;5057178;28;20119;-62
2021/12/23 05:34:48;;;;;;;31.27;19.27;;;3.20;69.60;;;;;;5074231;28;20058;-63
2021/12/23 05:37:14;;;;;;;31.47;18.57;;;3.20;69.50;;;;;;5073577;28;20028;-63
2021/12/23 05:39:39;;;;;;;32.53;19.60;;;3.20;69.40;;;;;;5073328;28;20436;-62
2021/12/23 05:42:05;;;;;;;29.17;18.63;;;3.20;69.40;;;;;;5073878;28;20037;-62
2021/12/23 05:44:31;;;;;;;31.17;18.50;;;3.20;69.30;;;;;;5074577;28;20017;-63
2021/12/23 05:46:56;;;;;;;29.60;19.17;;;3.20;69.40;;;;;;5073873;28;20155;-63
2021/12/23 05:49:22;;;;;;;30.20;19.67;;;3.20;69.40;;;;;;5074227;28;20032;-63
2021/12/23 05:51:48;;;;;;;30.23;17.93;;;3.20;69.40;;;;;;5073723;28;20036;-61
2021/12/23 05:54:13;;;;;;;30.13;18.17;;;3.20;69.40;;;;;;5073484;28;20055;-61
2021/12/23 05:56:39;;;;;;;32.30;20.53;;;3.20;69.40;;;;;;5073555;28;20048;-61
2021/12/23 05:59:05;;;;;;;33.13;18.77;;;3.20;69.40;;;;;;5072704;28;20028;-61
2021/12/23 06:01:31;;;;;;;31.00;18.43;;;3.20;69.40;;;;;;5074195;28;20029;-61
2021/12/23 06:03:57;;;;;;;36.00;19.47;;;3.20;70.00;;;;;;5056948;28;20058;-61
2021/12/23 06:06:23;;;;;;;34.13;18.87;;;3.20;69.30;;;;;;5074579;28;20020;-61
2021/12/23 06:08:49;;;;;;;30.70;18.50;;;3.20;69.30;;;;;;5074086;28;20037;-61
2021/12/23 06:11:14;;;;;;;30.40;18.67;;;3.20;69.20;;;;;;5074048;28;20020;-61
2021/12/23 06:13:40;;;;;;;30.90;19.40;;;3.20;69.20;;;;;;5073123;28;20042;-61
2021/12/23 06:16:05;;;;;;;31.50;18.90;;;3.10;69.20;;;;;;5073090;28;20036;-61
2021/12/23 06:18:31;;;;;;;32.73;18.97;;;3.10;69.20;;;;;;5073041;28;20115;-61
2021/12/23 06:20:57;;;;;;;36.23;20.53;;;3.20;69.20;;;;;;5056404;28;20032;-61
2021/12/23 06:23:22;;;;;;;32.47;21.53;;;3.20;69.20;;;;;;5073646;28;20048;-61
2021/12/23 06:25:48;;;;;;;31.93;19.90;;;3.10;69.20;;;;;;5073960;28;20027;-62
2021/12/23 06:28:13;;;;;;;35.53;21.93;;;3.10;69.20;;;;;;5056309;28;20478;-61
2021/12/23 06:30:39;;;;;;;33.17;20.63;;;3.10;69.20;;;;;;5073600;28;20048;-61
2021/12/23 06:33:05;;;;;;;29.03;17.97;;;3.10;69.20;;;;;;5073960;28;20301;-61
2021/12/23 06:35:31;;;;;;;32.03;19.57;;;3.10;69.20;;;;;;5074561;28;20071;-61
2021/12/23 06:38:03;;;;;;;34.20;19.90;;;3.10;69.20;;;;;;5073456;28;20044;-60
2021/12/23 06:40:28;;;;;;;34.90;21.35;;;3.10;69.20;;;;;;5067195;28;20464;-62
2021/12/23 06:42:54;;;;;;;35.10;20.17;;;3.10;69.20;;;;;;5072014;28;20020;-61
2021/12/23 06:45:20;;;;;;;33.23;19.23;;;3.10;69.20;;;;;;5055903;28;20033;-61
2021/12/23 06:47:45;;;;;;;33.87;20.57;;;3.10;69.20;;;;;;5072499;28;20029;-61
2021/12/23 06:50:13;;;;;;;32.53;20.37;;;3.10;69.20;;;;;;5056281;28;20024;-60
2021/12/23 06:52:39;;;;;;;31.27;19.07;;;3.20;69.20;;;;;;5054380;28;20117;-60
2021/12/23 06:55:07;;;;;;;35.00;20.93;;;3.20;69.20;;;;;;5071959;28;20028;-61
2021/12/23 06:57:32;;;;;;;30.00;18.40;;;3.20;69.20;;;;;;5073771;28;20033;-61
2021/12/23 06:59:58;;;;;;;33.77;20.77;;;3.20;69.10;;;;;;5072265;28;20105;-61
2021/12/23 07:02:25;;;;;;;33.77;20.83;;;3.20;69.20;;;;;;5056239;28;20032;-61
2021/12/23 07:04:50;;;;;;;37.33;19.70;;;3.20;69.10;;;;;;5061619;28;20071;-62
2021/12/23 07:07:28;;;;;;;35.13;21.63;;;3.20;69.10;;;;;;5056228;28;20461;-62
2021/12/23 07:09:54;;;;;;;37.10;21.17;;;3.20;69.10;;;;;;5066101;28;20029;-62
2021/12/23 07:12:21;;;;;;;34.03;18.40;;;3.20;69.20;;;;;;5072939;28;20388;-61
2021/12/23 07:14:46;;;;;;;34.90;19.50;;;3.20;69.20;;;;;;5072280;28;20052;-62
2021/12/23 07:17:12;;;;;;;34.93;21.40;;;3.20;69.20;;;;;;5073240;28;20047;-61
2021/12/23 07:19:38;;;;;;;38.33;20.67;;;3.20;69.10;;;;;;5073119;28;20040;-61
2021/12/23 07:22:03;;;;;;;35.70;20.00;;;3.20;69.20;;;;;;5073829;28;20034;-61
2021/12/23 07:24:29;;;;;;;35.60;21.17;;;3.20;69.10;;;;;;5072570;28;20027;-61
2021/12/23 07:26:55;;;;;;;34.50;21.30;;;3.30;69.20;;;;;;5073760;28;20031;-61
2021/12/23 07:29:21;;;;;;;34.03;20.47;;;3.30;69.20;;;;;;5071391;28;20350;-62
2021/12/23 07:31:47;;;;;;;33.77;20.07;;;3.30;69.20;;;;;;5067717;28;20056;-61
2021/12/23 07:34:13;;;;;;;35.43;19.90;;;3.30;69.20;;;;;;5065915;28;20115;-61
2021/12/23 07:36:40;;;;;;;37.43;21.43;;;3.30;69.20;;;;;;5051459;28;20182;-62
2021/12/23 07:39:07;;;;;;;34.40;20.90;;;3.30;69.30;;;;;;5061952;28;20032;-61
2021/12/23 07:41:33;;;;;;;35.87;19.90;;;3.30;69.20;;;;;;5068037;28;20044;-61
2021/12/23 07:44:03;;;;;;;35.97;20.50;;;3.30;69.20;;;;;;5053211;28;20029;-63
2021/12/23 07:46:32;;;;;;;37.27;20.67;;;3.30;69.80;;;;;;5070899;28;20032;-61
2021/12/23 07:48:58;;;;;;;37.00;19.80;;;3.30;69.20;;;;;;5072408;28;20402;-61
2021/12/23 07:51:24;;;;;;;36.17;19.57;;;3.30;69.20;;;;;;5070336;28;20111;-61
2021/12/23 07:53:50;;;;;;;35.20;21.13;;;3.30;69.30;;;;;;5055011;28;20029;-62
2021/12/23 07:56:17;;;;;;;37.67;20.13;;;3.30;69.30;;;;;;5057928;28;20029;-62
2021/12/23 07:58:42;;;;;;;36.03;21.70;;;3.30;69.20;;;;;;5052711;28;20036;-62
2021/12/23 08:01:08;;;;;;;37.70;21.30;;;3.40;69.20;;;;;;5059393;28;20029;-62
2021/12/23 08:03:34;;;;;;;34.60;20.10;;;3.30;69.20;;;;;;5056522;28;20052;-61
2021/12/23 08:05:59;;;;;;;34.53;19.97;;;3.30;69.20;;;;;;5042001;28;20075;-62
2021/12/23 08:08:25;;;;;;;38.33;22.37;;;3.40;69.30;;;;;;5076534;28;20035;-61
2021/12/23 08:10:50;;;;;;;35.67;20.97;;;3.30;69.30;;;;;;5076709;28;20035;-61
2021/12/23 08:13:19;;;;;;;39.57;21.10;;;3.40;69.40;;;;;;5076064;28;20099;-61
2021/12/23 08:15:45;;;;;;;34.33;21.30;;;3.40;69.30;;;;;;5074690;28;20024;-62
2021/12/23 08:18:11;;;;;;;34.70;21.60;;;3.40;69.30;;;;;;5075453;28;20028;-61
2021/12/23 08:20:37;;;;;;;34.23;20.10;;;3.40;69.30;;;;;;5055384;28;20029;-63
2021/12/23 08:23:03;;;;;;;33.80;20.03;;;3.40;69.30;;;;;;5063338;28;20029;-62
2021/12/23 08:25:29;;;;;;;36.83;21.27;;;3.40;69.20;;;;;;5068019;28;20476;-61
2021/12/23 08:27:55;;;;;;;34.03;20.97;;;3.50;69.30;;;;;;5048255;28;20036;-62
2021/12/23 08:30:20;;;;;;;33.00;19.33;;;3.40;69.20;;;;;;5072984;28;20052;-61
2021/12/23 08:32:48;;;;;;;33.90;19.57;;;3.40;69.20;;;;;;5075318;28;20365;-62
2021/12/23 08:35:15;;;;;;;34.73;20.10;;;3.40;69.20;;;;;;5075395;28;20032;-61
2021/12/23 08:37:45;;;;;;;36.63;20.23;;;3.40;69.20;;;;;;5075444;28;20050;-62
2021/12/23 08:40:13;;;;;;;37.87;21.03;;;3.50;69.30;;;;;;5074731;28;20029;-63
2021/12/23 08:42:38;;;;;;;32.53;19.17;;;3.50;69.20;;;;;;5067547;28;20104;-61
2021/12/23 08:45:07;;;;;;;34.47;19.57;;;3.50;69.20;;;;;;5075267;28;20421;-62
2021/12/23 08:47:33;;;;;;;34.73;20.63;;;3.50;69.20;;;;;;5074617;28;20056;-63
2021/12/23 08:49:59;;;;;;;36.73;20.73;;;3.50;69.20;;;;;;5076285;28;20086;-63
2021/12/23 08:52:24;;;;;;;36.70;21.33;;;3.50;69.20;;;;;;5057708;28;20028;-64
2021/12/23 08:54:50;;;;;;;31.17;18.93;;;3.50;69.20;;;;;;5073804;28;20044;-63
2021/12/23 08:57:16;;;;;;;37.33;21.77;;;3.50;69.30;;;;;;5073239;28;20445;-64
2021/12/23 08:59:42;;;;;;;37.00;20.30;;;3.50;69.30;;;;;;5074876;28;20029;-62
2021/12/23 09:02:08;;;;;;;35.93;21.27;;;3.50;69.20;;;;;;5074706;28;20024;-63
2021/12/23 09:04:35;;;;;;;35.10;20.57;;;3.50;69.30;;;;;;5073740;28;20345;-62
2021/12/23 09:07:02;;;;;;;30.27;18.20;;;3.50;69.30;;;;;;5074447;28;20035;-62
2021/12/23 09:09:31;;;;;;;34.60;19.83;;;3.50;69.30;;;;;;5074547;28;20029;-62
2021/12/23 09:11:56;;;;;;;33.50;19.50;;;3.50;69.30;;;;;;5056386;28;20032;-63
2021/12/23 09:14:22;;;;;;;35.73;20.47;;;3.50;69.30;;;;;;5073058;28;20024;-63
2021/12/23 09:16:49;;;;;;;37.47;20.73;;;3.50;69.30;;;;;;5072413;28;20078;-62
2021/12/23 09:19:14;;;;;;;33.93;20.03;;;3.50;69.30;;;;;;5055788;28;20074;-63
2021/12/23 09:21:41;;;;;;;39.97;21.77;;;3.50;69.30;;;;;;5073252;28;20024;-63
2021/12/23 09:24:06;;;;;;;32.07;19.07;;;3.60;69.30;;;;;;5073670;28;20398;-62
2021/12/23 09:26:40;;;;;;;36.97;21.43;;;3.60;69.30;;;;;;5074622;28;20028;-62
2021/12/23 09:29:18;;;;;;;33.97;19.37;;;3.60;69.20;;;;;;5068296;28;20039;-63
2021/12/23 09:34:28;;;;;;;34.23;19.97;;;3.70;69.20;;;;;;5060875;28;20036;-63
2021/12/23 09:36:54;;;;;;;34.37;20.37;;;3.70;69.20;;;;;;5074081;28;20029;-62
2021/12/23 09:39:21;;;;;;;38.67;19.93;;;3.70;69.10;;;;;;5049324;28;20033;-63
2021/12/23 09:41:47;;;;;;;36.17;21.10;;;3.80;69.20;;;;;;5055669;28;20039;-63
2021/12/23 09:44:14;;;;;;;43.47;21.00;;;3.80;69.80;;;;;;5060710;28;20021;-72
2021/12/23 09:46:41;;;;;;;34.00;20.60;;;3.80;69.10;;;;;;5074652;28;20032;-64
2021/12/23 09:49:07;;;;;;;37.60;21.43;;;3.80;69.20;;;;;;5073410;28;20039;-64
2021/12/23 09:51:34;;;;;;;32.57;19.90;;;3.80;69.10;;;;;;5075500;28;20059;-64
2021/12/23 09:54:05;;;;;;;33.80;18.83;;;3.90;69.10;;;;;;5074778;28;20111;-65
2021/12/23 09:56:32;;;;;;;34.97;21.43;;;3.90;69.10;;;;;;5074782;28;20501;-65
2021/12/23 09:58:59;;;;;;;38.47;21.87;;;3.90;69.10;;;;;;5074952;28;20093;-64
2021/12/23 10:01:30;;;;;;;37.03;19.50;;;4.00;69.00;;;;;;5073723;28;20404;-64
2021/12/23 10:03:56;;;;;;;37.25;20.98;;;4.00;69.00;;;;;;5074468;28;20028;-64
2021/12/23 10:06:24;;;;;;;32.20;19.00;;;4.00;68.90;;;;;;5074840;28;20470;-65
2021/12/23 10:08:50;;;;;;;35.77;20.43;;;4.00;68.90;;;;;;5056767;28;20330;-63
2021/12/23 10:11:26;;;;;;;36.53;19.60;;;4.00;69.50;;;;;;5073886;28;20043;-63
2021/12/23 10:30:02;;;;;;;36.17;19.40;;;4.20;68.90;;;;;;5063782;28;20048;-63
2021/12/23 10:31:09;;;;;;;41.03;21.27;;;4.20;68.80;;;;;;5067470;28;20049;-63
2021/12/23 10:38:46;;;;;;;41.90;22.67;;;4.40;68.80;;;;;;5074098;28;20017;-63
2021/12/23 10:41:25;;;;;;;36.67;21.87;;;4.40;68.70;;;;;;5072700;28;20054;-64
2021/12/23 10:44:00;;;;;;;36.13;21.67;;;4.40;68.70;;;;;;5056252;28;20040;-64
2021/12/23 10:46:38;;;;;;;34.83;20.53;;;4.50;68.80;;;;;;5073649;28;20587;-64
2021/12/23 10:49:52;;;;;;;36.73;19.03;;;4.40;68.70;;;;;;5071313;28;20032;-64
2021/12/23 10:52:25;;;;;;;34.73;20.00;;;4.50;68.80;;;;;;5071008;28;20145;-64
2021/12/23 11:00:12;;;;;;;36.97;21.60;;;4.60;68.80;;;;;;5072504;28;20043;-64
2021/12/23 11:02:39;;;;;;;36.67;20.13;;;4.60;68.80;;;;;;5072759;28;20040;-64
2021/12/23 11:05:19;;;;;;;35.70;19.90;;;4.60;68.80;;;;;;5070753;28;20017;-64
2021/12/23 11:07:57;;;;;;;33.83;19.37;;;4.70;68.80;;;;;;5056039;28;20372;-64
2021/12/23 11:10:53;;;;;;;38.57;21.40;;;4.80;68.80;;;;;;5056220;28;20135;-64
2021/12/23 11:39:45;;;;;;;31.00;19.13;;;5.00;69.10;;;;;;5048512;28;20041;-65
2021/12/23 11:42:23;;;;;;;35.57;20.43;;;5.00;69.10;;;;;;5047291;28;20394;-64
2021/12/23 11:44:49;;;;;;;32.70;18.83;;;5.00;69.10;;;;;;5038966;28;20116;-64
2021/12/23 11:47:15;;;;;;;37.73;19.67;;;5.00;69.20;;;;;;5039619;28;20128;-64
2021/12/23 11:49:44;;;;;;;34.20;19.97;;;5.10;69.20;;;;;;5055669;28;20036;-64
2021/12/23 11:52:11;;;;;;;32.73;20.07;;;5.10;69.30;;;;;;5052372;28;20361;-64
2021/12/23 11:54:41;;;;;;;31.53;19.03;;;5.20;69.30;;;;;;5038318;28;20041;-63
2021/12/23 11:57:10;;;;;;;30.30;17.80;;;5.10;69.40;;;;;;5040534;28;20099;-63
2021/12/23 11:59:40;;;;;;;33.67;18.27;;;5.20;69.50;;;;;;5036322;28;20121;-63
2021/12/23 12:02:17;;;;;;;36.40;20.00;;;5.20;69.50;;;;;;5049245;28;20025;-63
2021/12/23 12:04:44;;;;;;;34.60;19.97;;;5.20;69.50;;;;;;5052567;28;20043;-64
2021/12/23 12:07:14;;;;;;;36.30;19.70;;;5.20;69.50;;;;;;5054034;28;20096;-63
2021/12/23 12:10:01;;;;;;;34.30;18.20;;;5.30;69.50;;;;;;5041885;28;20029;-63
2021/12/23 12:12:29;;;;;;;36.37;20.67;;;5.30;69.50;;;;;;5037536;28;20044;-63
2021/12/23 12:14:57;;;;;;;36.00;19.90;;;5.30;69.50;;;;;;5072717;28;20029;-65
2021/12/23 12:17:25;;;;;;;40.47;20.77;;;5.30;69.50;;;;;;5074941;28;20036;-63
2021/12/23 12:20:04;;;;;;;34.57;19.43;;;5.40;69.60;;;;;;5076021;28;20068;-62
2021/12/23 12:23:07;;;;;;;31.70;16.97;;;5.40;69.60;;;;;;5074417;28;20024;-63
2021/12/23 12:25:40;;;;;;;34.93;19.20;;;5.50;69.60;;;;;;5075369;28;20031;-63
2021/12/23 12:28:06;;;;;;;35.27;18.73;;;5.50;69.50;;;;;;5075148;28;20074;-63
2021/12/23 12:30:40;;;;;;;32.17;17.97;;;5.50;69.50;;;;;;5075447;28;20060;-63
2021/12/23 12:33:33;;;;;;;32.23;17.87;;;5.60;69.60;;;;;;5076290;28;20540;-62
2021/12/23 12:36:02;;;;;;;34.17;19.23;;;5.60;69.60;;;;;;5076964;28;20035;-62
2021/12/23 12:38:31;;;;;;;32.07;17.57;;;5.60;69.60;;;;;;5074876;28;20048;-62
2021/12/23 12:41:22;;;;;;;33.53;18.87;;;5.60;69.60;;;;;;5075150;28;20408;-62
2021/12/23 12:43:54;;;;;;;34.30;18.83;;;5.60;69.60;;;;;;5071978;28;20033;-62
2021/12/23 12:46:45;;;;;;;30.73;17.87;;;5.60;69.60;;;;;;5063759;28;20033;-63
2021/12/23 12:49:15;;;;;;;32.53;18.07;;;5.70;69.70;;;;;;5076256;28;20037;-62
2021/12/23 12:51:44;;;;;;;30.30;17.87;;;5.70;69.60;;;;;;5073926;28;20036;-62
2021/12/23 12:54:15;;;;;;;39.03;19.23;;;5.70;69.50;;;;;;5073430;28;20399;-62
2021/12/23 12:56:47;;;;;;;35.83;18.27;;;5.80;69.60;;;;;;5057211;28;20032;-62
2021/12/23 12:59:16;;;;;;;31.73;18.03;;;5.80;69.70;;;;;;5076156;28;20028;-63
2021/12/23 13:01:48;;;;;;;29.03;17.07;;;5.80;69.60;;;;;;5074468;28;20338;-63
2021/12/23 13:04:33;;;;;;;26.98;15.82;;;5.80;69.60;;;;;;5075367;28;20063;-63
2021/12/23 13:07:14;;;;;;;34.10;19.47;;;5.80;69.50;;;;;;5063253;28;20086;-63
2021/12/23 13:10:27;;;;;;;33.10;17.97;;;5.90;69.60;;;;;;5065528;28;20422;-63
2021/12/23 13:13:31;;;;;;;34.63;19.83;;;5.90;70.20;;;;;;5071248;28;20048;-63
2021/12/23 13:16:10;;;;;;;30.17;16.53;;;5.90;69.60;;;;;;5076101;28;20040;-63
2021/12/23 13:18:35;;;;;;;30.47;18.20;;;5.90;69.70;;;;;;5075119;28;20116;-63
2021/12/23 13:21:05;;;;;;;30.93;15.67;;;5.90;69.70;;;;;;5074553;28;20442;-64
2021/12/23 13:23:45;;;;;;;32.33;17.97;;;5.90;69.80;;;;;;5075799;28;20444;-64
2021/12/23 13:26:11;;;;;;;30.37;16.67;;;5.90;69.80;;;;;;5075667;28;20033;-64
2021/12/23 13:28:51;;;;;;;36.30;19.23;;;6.00;69.80;;;;;;5075622;28;20032;-65
2021/12/23 13:31:23;;;;;;;28.20;16.63;;;6.00;69.90;;;;;;5074653;28;20457;-64
2021/12/23 13:33:53;;;;;;;28.43;17.20;;;6.00;69.90;;;;;;5074346;28;20063;-70
2021/12/23 13:36:23;;;;;;;32.20;18.47;;;6.00;70.00;;;;;;5057688;28;20064;-70
2021/12/23 13:38:55;;;;;;;35.30;18.97;;;6.00;70.00;;;;;;5074370;28;20364;-69
2021/12/23 13:41:35;;;;;;;28.27;15.83;;;6.00;70.00;;;;;;5071659;28;20033;-69
2021/12/23 13:44:19;;;;;;;28.73;15.93;;;6.00;70.10;;;;;;5076085;28;20031;-70